Time;durP1;ratioP1;P1;durP2;ratioP2;P2;SDS_P1;SDS_P2;PMS_P1;PMS_P2;Temp;Humidity;BMP_temperature;BMP_pressure;BME280_temperature;BME280_humidity;BME280_pressure;Samples;Min_cycle;Max_cycle;Signal;HPM_P1;HPM_P2
2024/04/03 00:06:42;;;;;;;1.90;0.70;;;;;;;8.87;76.05;98187.19;447828;1239;139485;-68
2024/04/03 00:16:45;;;;;;;1.30;0.60;;;;;;;8.87;75.83;98191.01;446274;1239;5085658;-68
2024/04/03 00:26:49;;;;;;;4.50;1.00;;;;;;;8.87;75.92;98190.86;449297;1239;138992;-69
2024/04/03 00:36:52;;;;;;;1.30;0.60;;;;;;;8.83;75.89;98187.13;447929;1239;138895;-67
2024/04/03 00:46:55;;;;;;;0.60;0.60;;;;;;;8.76;75.96;98192.58;448974;1239;138951;-67
2024/04/03 00:56:58;;;;;;;1.10;0.80;;;;;;;8.62;76.01;98193.11;448246;1239;139979;-64
2024/04/03 01:07:04;;;;;;;2.90;1.10;;;;;;;8.39;76.13;98191.02;448838;1239;140164;-62
2024/04/03 01:17:10;;;;;;;1.00;0.80;;;;;;;8.19;76.50;98188.55;447862;1235;138734;-65
2024/04/03 01:27:13;;;;;;;0.90;0.70;;;;;;;8.19;77.34;98190.66;447508;1240;139402;-65
2024/04/03 01:37:17;;;;;;;1.80;0.70;;;;;;;8.22;77.48;98184.48;448084;1239;138795;-64
2024/04/03 01:47:21;;;;;;;2.20;1.00;;;;;;;8.26;77.86;98187.64;448097;1239;139281;-66
2024/04/03 01:57:24;;;;;;;1.60;0.60;;;;;;;8.31;77.98;98188.11;448622;1239;139056;-68
2024/04/03 02:07:27;;;;;;;1.20;0.90;;;;;;;8.36;78.19;98187.58;449221;1239;139112;-69
2024/04/03 02:17:31;;;;;;;0.90;0.80;;;;;;;8.40;78.49;98181.85;447751;1240;139398;-67
2024/04/03 02:27:34;;;;;;;0.90;0.80;;;;;;;8.44;78.55;98182.92;448218;1239;139142;-65
2024/04/03 02:37:37;;;;;;;2.20;0.60;;;;;;;8.41;78.81;98180.07;447612;1235;139489;-66
2024/04/03 02:47:41;;;;;;;1.30;0.70;;;;;;;8.41;79.16;98177.07;447635;1239;139443;-66
2024/04/03 02:57:44;;;;;;;0.70;0.70;;;;;;;8.42;79.19;98171.61;447594;1240;139180;-65
2024/04/03 03:07:48;;;;;;;1.30;0.70;;;;;;;8.41;79.28;98173.27;447583;1236;138751;-65
2024/04/03 03:17:51;;;;;;;0.90;0.90;;;;;;;8.38;79.81;98173.10;447377;1240;139505;-65
2024/04/03 03:27:54;;;;;;;0.60;0.60;;;;;;;8.34;79.98;98164.05;447596;1239;139135;-65
2024/04/03 03:37:59;;;;;;;2.90;0.90;;;;;;;8.33;80.38;98162.90;447452;1239;139331;-64
2024/04/03 03:48:06;;;;;;;2.40;1.40;;;;;;;8.35;80.48;98155.44;448800;1239;139389;-61
2024/04/03 03:58:09;;;;;;;1.90;1.20;;;;;;;8.34;80.57;98156.00;447794;1235;138936;-61
2024/04/03 04:08:13;;;;;;;1.90;1.40;;;;;;;8.30;80.60;98153.66;447980;1241;137896;-62
2024/04/03 04:18:16;;;;;;;0.80;0.80;;;;;;;8.29;80.72;98152.39;447552;1240;139494;-64
2024/04/03 04:28:19;;;;;;;1.30;0.80;;;;;;;8.28;80.82;98147.20;447509;1239;139199;-68
2024/04/03 04:38:23;;;;;;;1.00;0.90;;;;;;;8.25;81.23;98141.52;447879;1240;138773;-68
2024/04/03 04:48:28;;;;;;;1.20;1.10;;;;;;;8.26;81.38;98140.72;448226;1239;138770;-66
2024/04/03 04:58:32;;;;;;;2.00;0.70;;;;;;;8.23;81.73;98141.00;447532;1240;139050;-64
2024/04/03 05:08:35;;;;;;;2.30;1.60;;;;;;;8.23;81.98;98143.08;448053;1240;139753;-58
2024/04/03 05:18:39;;;;;;;2.50;1.50;;;;;;;8.24;82.22;98143.29;446906;1240;139034;-59
2024/04/03 05:28:42;;;;;;;3.40;1.20;;;;;;;8.31;82.47;98147.55;447107;1235;139411;-68
2024/04/03 05:38:46;;;;;;;1.90;1.70;;;;;;;8.37;82.61;98156.27;447242;1235;139315;-60
2024/04/03 05:48:49;;;;;;;2.50;1.20;;;;;;;8.45;82.62;98162.30;447943;1239;139663;-49
2024/04/03 05:58:54;;;;;;;2.90;2.10;;;;;;;8.49;82.22;98166.73;447038;1235;139502;-49
2024/04/03 06:08:57;;;;;;;3.00;1.70;;;;;;;8.52;82.10;98172.23;447424;1235;138905;-48
2024/04/03 06:19:03;;;;;;;5.60;2.70;;;;;;;8.63;81.81;98169.33;447227;1239;139761;-48
2024/04/03 06:29:09;;;;;;;3.60;1.90;;;;;;;8.68;81.63;98168.17;447863;1235;138936;-48
2024/04/03 06:39:12;;;;;;;3.20;2.70;;;;;;;8.74;80.95;98172.35;447167;1240;139015;-59
2024/04/03 06:49:17;;;;;;;5.10;1.60;;;;;;;8.85;80.99;98175.46;447369;1237;138871;-60
2024/04/03 06:59:22;;;;;;;3.80;1.80;;;;;;;8.93;80.42;98189.09;448439;1235;138936;-66
2024/04/03 07:09:26;;;;;;;3.50;1.60;;;;;;;8.99;80.09;98192.46;447286;1239;138912;-67
2024/04/03 07:19:31;;;;;;;3.10;1.80;;;;;;;9.04;80.03;98193.16;449385;1235;138848;-60
2024/04/03 07:29:34;;;;;;;4.50;2.30;;;;;;;9.15;79.86;98194.69;449676;1239;139677;-61
2024/04/03 07:39:38;;;;;;;2.30;2.10;;;;;;;10.30;80.76;98195.39;449714;1239;138971;-48
2024/04/03 07:49:41;;;;;;;3.10;2.10;;;;;;;11.17;77.60;98203.42;450748;1235;139586;-51
2024/04/03 07:59:49;;;;;;;2.00;1.10;;;;;;;12.16;76.64;98213.46;449405;1239;140073;-57
2024/04/03 08:09:52;;;;;;;3.50;1.70;;;;;;;12.38;72.46;98218.70;449592;1238;139625;-58
2024/04/03 08:19:56;;;;;;;3.10;1.90;;;;;;;11.97;72.65;98225.92;449622;1236;139878;-51
2024/04/03 08:30:00;;;;;;;3.40;2.30;;;;;;;11.99;72.01;98227.17;447936;1235;139039;-60
2024/04/03 08:40:06;;;;;;;5.10;2.60;;;;;;;11.51;71.05;98232.15;447570;1239;139178;-60
2024/04/03 08:50:11;;;;;;;10.50;2.30;;;;;;;11.25;71.77;98230.73;447946;1239;139097;-68
2024/04/03 09:00:15;;;;;;;4.60;2.20;;;;;;;11.04;72.97;98248.84;447933;1235;139368;-66
2024/04/03 09:10:29;;;;;;;5.00;2.00;;;;;;;10.75;74.71;98261.11;447722;1239;139650;-59
2024/04/03 09:20:33;;;;;;;4.60;2.60;;;;;;;10.83;74.55;98253.23;447671;1239;139484;-59
2024/04/03 09:30:40;;;;;;;1.80;1.50;;;;;;;10.97;73.72;98254.89;448377;1239;139559;-59
2024/04/03 09:40:49;;;;;;;2.60;1.20;;;;;;;10.80;73.26;98285.52;447992;1236;139586;-59
2024/04/03 09:50:55;;;;;;;2.30;1.40;;;;;;;10.59;74.82;98293.09;447786;1239;139803;-59
2024/04/03 10:00:59;;;;;;;3.50;2.60;;;;;;;10.69;76.20;98300.17;447683;1235;140140;-58
2024/04/03 10:11:07;;;;;;;1.80;1.70;;;;;;;11.65;77.65;98300.08;448392;1235;139471;-50
2024/04/03 10:21:13;;;;;;;1.60;1.50;;;;;;;12.78;75.96;98301.86;448524;1236;139155;-52
2024/04/03 10:31:19;;;;;;;2.70;1.50;;;;;;;13.79;73.16;98285.20;447935;1239;139090;-49
2024/04/03 10:41:22;;;;;;;3.20;1.20;;;;;;;13.99;69.08;98313.42;448264;1238;139344;-50
2024/04/03 10:51:26;;;;;;;0.90;0.90;;;;;;;12.38;68.06;98374.92;447920;1236;138886;-57
2024/04/03 11:01:31;;;;;;;0.70;0.70;;;;;;;11.29;70.67;98394.38;449011;1239;139201;-59
2024/04/03 11:11:41;;;;;;;1.10;1.00;;;;;;;11.05;71.90;98414.08;448906;1236;139624;-68
2024/04/03 11:21:44;;;;;;;2.60;1.80;;;;;;;10.95;72.71;98420.19;448312;1235;139165;-58
2024/04/03 11:31:48;;;;;;;1.70;1.50;;;;;;;10.58;72.76;98433.53;448872;1235;139680;-58
2024/04/03 11:41:53;;;;;;;2.10;1.30;;;;;;;10.62;74.36;98443.55;448242;1235;139887;-60
2024/04/03 11:51:56;;;;;;;2.30;1.70;;;;;;;10.74;74.87;98455.52;448311;1239;139609;-60
2024/04/03 12:01:59;;;;;;;1.70;1.50;;;;;;;11.27;76.13;98459.73;448950;1239;139051;-60
2024/04/03 12:12:03;;;;;;;2.10;1.40;;;;;;;11.66;75.31;98454.08;446463;1236;2396905;-60
2024/04/03 12:22:07;;;;;;;2.40;1.40;;;;;;;11.68;74.13;98456.17;448677;1235;139625;-60
2024/04/03 12:32:10;;;;;;;1.20;1.10;;;;;;;11.69;73.31;98463.99;448894;1239;139837;-59
2024/04/03 12:42:16;;;;;;;2.10;0.80;;;;;;;11.90;72.73;98469.08;448835;1239;139043;-60
2024/04/03 12:52:19;;;;;;;5.40;3.70;;;;;;;12.06;71.34;98476.10;448375;1239;139024;-62
2024/04/03 13:02:25;;;;;;;7.90;3.30;;;;;;;12.43;70.99;98479.52;449544;1235;139163;-50
2024/04/03 13:12:29;;;;;;;4.80;2.20;;;;;;;12.34;69.69;98481.51;449803;1238;140284;-49
2024/04/03 13:22:33;;;;;;;2.60;1.80;;;;;;;12.29;69.69;98491.67;448893;1236;139907;-58
2024/04/03 13:32:39;;;;;;;1.80;1.70;;;;;;;12.58;68.92;98495.37;449177;1239;139225;-59
2024/04/03 13:42:44;;;;;;;2.80;1.80;;;;;;;12.70;67.92;98505.02;448705;1239;139129;-66
2024/04/03 13:52:48;;;;;;;2.70;1.20;;;;;;;12.67;66.91;98515.19;449285;1239;139872;-67
2024/04/03 14:02:52;;;;;;;2.20;1.70;;;;;;;12.58;66.06;98522.57;448727;1239;139655;-61
2024/04/03 14:12:55;;;;;;;1.80;1.40;;;;;;;12.32;65.26;98541.16;448646;1239;138398;-52
2024/04/03 14:22:58;;;;;;;2.20;1.40;;;;;;;11.99;65.42;98554.21;448603;1239;138304;-58
2024/04/03 14:33:02;;;;;;;3.80;1.50;;;;;;;12.10;65.77;98564.70;449026;1237;139459;-60
2024/04/03 14:43:06;;;;;;;1.70;1.10;;;;;;;12.28;64.85;98580.86;448619;1239;138475;-58
2024/04/03 14:53:14;;;;;;;2.60;0.90;;;;;;;12.27;63.79;98589.20;449937;1237;139017;-62
2024/04/03 15:03:17;;;;;;;;;;;;;;;12.12;62.60;98599.27;448887;1236;138564;-59
2024/04/03 15:13:20;;;;;;;2.70;1.90;;;;;;;11.95;62.71;98616.97;448906;1236;125366;-59
2024/04/03 15:23:23;;;;;;;3.60;1.60;;;;;;;11.70;63.17;98637.29;448569;1239;137510;-57
2024/04/03 15:33:26;;;;;;;1.80;1.70;;;;;;;11.71;63.34;98653.70;448938;1239;138298;-63
2024/04/03 15:43:30;;;;;;;1.90;1.70;;;;;;;11.56;62.58;98670.20;449542;1239;138413;-63
2024/04/03 15:53:34;;;;;;;2.70;1.80;;;;;;;11.28;62.70;98682.08;448760;1237;138963;-64
2024/04/03 16:03:38;;;;;;;1.90;1.70;;;;;;;11.01;63.02;98700.70;450802;1235;139287;-63
2024/04/03 16:13:42;;;;;;;2.20;2.00;;;;;;;10.76;63.14;98713.71;449491;1239;138402;-58
2024/04/03 16:23:46;;;;;;;1.90;1.80;;;;;;;10.61;63.25;98721.64;449261;1237;138326;-58
2024/04/03 16:33:49;;;;;;;1.70;1.60;;;;;;;10.20;63.32;98732.28;449552;1239;139468;-50
2024/04/03 16:43:53;;;;;;;3.80;2.20;;;;;;;9.84;63.80;98744.10;449462;1239;138362;-51
2024/04/03 16:53:56;;;;;;;2.40;2.00;;;;;;;9.45;64.18;98751.96;448880;1239;140046;-57
2024/04/03 17:04:00;;;;;;;2.20;2.00;;;;;;;9.04;64.72;98771.83;448799;1239;138234;-58
2024/04/03 17:14:11;;;;;;;3.30;2.70;;;;;;;8.64;65.47;98792.70;448919;1236;138214;-57
2024/04/03 17:24:15;;;;;;;3.00;2.40;;;;;;;8.28;66.21;98799.66;449162;1239;139369;-64
2024/04/03 17:34:18;;;;;;;3.80;3.00;;;;;;;8.01;67.05;98819.41;448913;1236;138833;-64
2024/04/03 17:44:24;;;;;;;7.30;5.80;;;;;;;7.89;67.69;98836.59;448021;1239;139374;-64
2024/04/03 17:54:27;;;;;;;11.00;6.80;;;;;;;7.78;67.96;98852.41;448070;1236;140420;-64
2024/04/03 18:04:30;;;;;;;11.20;5.80;;;;;;;7.57;67.96;98863.33;447951;1239;139518;-57
2024/04/03 18:14:34;;;;;;;14.20;8.90;;;;;;;7.29;68.59;98875.14;448177;1239;138865;-58
2024/04/03 18:24:37;;;;;;;6.10;4.40;;;;;;;7.03;69.15;98893.90;447941;1239;139998;-57
2024/04/03 18:34:44;;;;;;;4.60;2.80;;;;;;;6.89;69.55;98912.52;447623;1239;139191;-58
2024/04/03 18:44:48;;;;;;;3.90;2.70;;;;;;;6.75;69.73;98921.48;448760;1239;138910;-59
2024/04/03 18:54:51;;;;;;;3.90;3.30;;;;;;;6.59;69.93;98932.70;448107;1239;139349;-58
2024/04/03 19:04:54;;;;;;;5.20;4.70;;;;;;;6.38;70.22;98950.61;448148;1239;139369;-63
2024/04/03 19:14:57;;;;;;;8.50;6.30;;;;;;;6.39;70.56;98954.02;447873;1240;138908;-62
2024/04/03 19:25:02;;;;;;;4.10;3.60;;;;;;;6.46;70.82;98960.95;448464;1239;138882;-65
2024/04/03 19:35:09;;;;;;;4.50;2.90;;;;;;;6.47;70.71;98961.53;448539;1239;139780;-65
2024/04/03 19:45:12;;;;;;;8.80;3.50;;;;;;;6.42;70.70;98965.13;448886;1239;139288;-63
2024/04/03 19:55:16;;;;;;;4.60;2.90;;;;;;;6.39;70.81;98972.06;448630;1239;138695;-67
2024/04/03 20:05:19;;;;;;;4.00;3.40;;;;;;;6.34;71.05;98980.04;448578;1239;139755;-57
2024/04/03 20:15:23;;;;;;;2.80;2.50;;;;;;;6.31;70.84;98979.48;448146;1239;139466;-55
2024/04/03 20:25:26;;;;;;;3.50;2.90;;;;;;;6.25;70.49;98985.02;448686;1238;138908;-51
2024/04/03 20:35:30;;;;;;;5.10;2.20;;;;;;;6.24;70.63;98987.52;447819;1239;139188;-66
2024/04/03 20:45:45;;;;;;;3.90;3.40;;;;;;;6.19;70.54;98997.01;447839;1235;139308;-57
2024/04/03 20:55:48;;;;;;;2.60;2.40;;;;;;;6.11;70.62;99010.33;447935;1239;140116;-48
2024/04/03 21:05:56;;;;;;;3.90;2.70;;;;;;;6.02;70.59;99008.02;449289;1239;139419;-48
2024/04/03 21:15:59;;;;;;;3.40;3.00;;;;;;;5.92;70.58;99013.91;448472;1239;139263;-47
2024/04/03 21:26:04;;;;;;;2.20;2.00;;;;;;;5.87;70.73;99015.89;447938;1239;139308;-49
2024/04/03 21:36:08;;;;;;;2.60;2.20;;;;;;;5.85;71.09;99018.41;448021;1240;139904;-54
2024/04/03 21:46:11;;;;;;;2.70;2.10;;;;;;;5.83;71.18;99028.98;448020;1239;139098;-53
2024/04/03 21:56:15;;;;;;;5.00;2.90;;;;;;;5.77;71.53;99039.00;447996;1235;139424;-54
2024/04/03 22:06:18;;;;;;;6.10;4.30;;;;;;;5.80;72.21;99041.85;447508;1240;139611;-53
2024/04/03 22:16:21;;;;;;;5.70;4.00;;;;;;;5.78;72.99;99041.05;447649;1239;139425;-65
2024/04/03 22:26:25;;;;;;;5.00;3.40;;;;;;;5.72;73.57;99046.55;447609;1239;139165;-66
2024/04/03 22:36:28;;;;;;;4.90;3.60;;;;;;;5.60;73.48;99054.48;447846;1240;138848;-55
2024/04/03 22:46:31;;;;;;;6.30;4.20;;;;;;;5.52;73.63;99053.83;447941;1239;138796;-57
2024/04/03 22:56:35;;;;;;;6.00;4.70;;;;;;;5.50;74.00;99048.73;447475;1240;139212;-66
2024/04/03 23:06:38;;;;;;;6.50;4.90;;;;;;;5.45;74.14;99045.36;447579;1240;139408;-66
2024/04/03 23:16:42;;;;;;;5.40;4.10;;;;;;;5.38;74.32;99043.30;447382;1235;139189;-57
2024/04/03 23:26:45;;;;;;;4.00;3.60;;;;;;;5.31;74.58;99042.73;447445;1240;138679;-66
2024/04/03 23:36:48;;;;;;;7.00;4.80;;;;;;;5.23;74.62;99039.20;447225;1239;138689;-65
2024/04/03 23:46:52;;;;;;;6.80;4.90;;;;;;;5.09;74.90;99031.55;447427;1239;139138;-55
2024/04/03 23:56:55;;;;;;;6.70;5.30;;;;;;;4.96;75.75;99032.21;448280;1240;138616;-58
